Terminal Aerodrome Forecast
Issued by NWS Honolulu, HI

Home | Current Version | Previous Version | Text Only | Print | Product List | Glossary On
Versions: 1 2 3 4 5 6 7 8 9 10 11 12 13 14 15 16 17 18 19 20 21 22 23
000
FTPA31 PHFO 240545
TAFHNL
TAF
PHNL 240545Z 2406/2512 06011G15KT 6SM -SHRA SCT025 BKN035
     FM241800 06018G24KT 6SM -SHRA BKN025
     FM250500 11015G25KT P6SM SCT025 BKN035=

USA.gov is the U.S. government's official web portal to all federal, state and local government web resources and services.